sensor_id;sensor_type;location;lat;lon;timestamp;P1;durP1;ratioP1;P2;durP2;ratioP2
20713;SDS011;10518;50.742;4.226;2023-04-25T00:02:05;2.63;;;1.47;;
20713;SDS011;10518;50.742;4.226;2023-04-25T00:04:32;4.63;;;2.40;;
20713;SDS011;10518;50.742;4.226;2023-04-25T00:06:58;3.37;;;1.43;;
20713;SDS011;10518;50.742;4.226;2023-04-25T00:09:28;7.53;;;1.37;;
20713;SDS011;10518;50.742;4.226;2023-04-25T00:11:53;4.60;;;1.73;;
20713;SDS011;10518;50.742;4.226;2023-04-25T00:14:19;5.20;;;1.47;;
20713;SDS011;10518;50.742;4.226;2023-04-25T00:16:45;5.43;;;1.77;;
20713;SDS011;10518;50.742;4.226;2023-04-25T00:19:10;7.63;;;2.00;;
20713;SDS011;10518;50.742;4.226;2023-04-25T00:21:36;6.10;;;1.83;;
20713;SDS011;10518;50.742;4.226;2023-04-25T00:24:05;2.27;;;1.57;;
20713;SDS011;10518;50.742;4.226;2023-04-25T00:26:31;3.23;;;1.80;;
20713;SDS011;10518;50.742;4.226;2023-04-25T00:28:58;2.93;;;1.20;;
20713;SDS011;10518;50.742;4.226;2023-04-25T00:31:24;6.30;;;1.97;;
20713;SDS011;10518;50.742;4.226;2023-04-25T00:33:49;5.57;;;1.40;;
20713;SDS011;10518;50.742;4.226;2023-04-25T00:36:15;4.07;;;1.60;;
20713;SDS011;10518;50.742;4.226;2023-04-25T00:38:42;7.60;;;1.87;;
20713;SDS011;10518;50.742;4.226;2023-04-25T00:41:07;2.30;;;1.83;;
20713;SDS011;10518;50.742;4.226;2023-04-25T00:43:33;2.70;;;1.57;;
20713;SDS011;10518;50.742;4.226;2023-04-25T00:46:01;4.87;;;1.67;;
20713;SDS011;10518;50.742;4.226;2023-04-25T00:48:26;9.27;;;2.13;;
20713;SDS011;10518;50.742;4.226;2023-04-25T00:50:53;10.93;;;2.00;;
20713;SDS011;10518;50.742;4.226;2023-04-25T00:53:21;2.10;;;1.37;;
20713;SDS011;10518;50.742;4.226;2023-04-25T00:55:48;5.30;;;2.10;;
20713;SDS011;10518;50.742;4.226;2023-04-25T00:58:16;4.97;;;1.43;;
20713;SDS011;10518;50.742;4.226;2023-04-25T01:00:45;4.70;;;1.70;;
20713;SDS011;10518;50.742;4.226;2023-04-25T01:03:15;2.70;;;1.50;;
20713;SDS011;10518;50.742;4.226;2023-04-25T01:05:42;5.00;;;1.80;;
20713;SDS011;10518;50.742;4.226;2023-04-25T01:08:08;9.67;;;1.83;;
20713;SDS011;10518;50.742;4.226;2023-04-25T01:10:34;3.80;;;1.33;;
20713;SDS011;10518;50.742;4.226;2023-04-25T01:13:00;8.57;;;1.87;;
20713;SDS011;10518;50.742;4.226;2023-04-25T01:15:26;6.97;;;2.13;;
20713;SDS011;10518;50.742;4.226;2023-04-25T01:17:52;2.87;;;1.47;;
20713;SDS011;10518;50.742;4.226;2023-04-25T01:20:18;9.07;;;1.80;;
20713;SDS011;10518;50.742;4.226;2023-04-25T01:22:45;5.73;;;1.67;;
20713;SDS011;10518;50.742;4.226;2023-04-25T01:25:11;5.53;;;1.90;;
20713;SDS011;10518;50.742;4.226;2023-04-25T01:27:37;4.33;;;1.97;;
20713;SDS011;10518;50.742;4.226;2023-04-25T01:30:04;7.50;;;1.93;;
20713;SDS011;10518;50.742;4.226;2023-04-25T01:32:31;2.40;;;1.30;;
20713;SDS011;10518;50.742;4.226;2023-04-25T01:35:03;7.43;;;1.37;;
20713;SDS011;10518;50.742;4.226;2023-04-25T01:37:34;6.83;;;1.57;;
20713;SDS011;10518;50.742;4.226;2023-04-25T01:40:03;3.23;;;1.73;;
20713;SDS011;10518;50.742;4.226;2023-04-25T01:42:32;4.10;;;2.00;;
20713;SDS011;10518;50.742;4.226;2023-04-25T01:44:59;3.87;;;1.53;;
20713;SDS011;10518;50.742;4.226;2023-04-25T01:47:25;3.77;;;1.80;;
20713;SDS011;10518;50.742;4.226;2023-04-25T01:49:50;2.77;;;2.10;;
20713;SDS011;10518;50.742;4.226;2023-04-25T01:52:16;6.57;;;1.67;;
20713;SDS011;10518;50.742;4.226;2023-04-25T01:54:42;3.47;;;1.53;;
20713;SDS011;10518;50.742;4.226;2023-04-25T01:57:10;11.43;;;1.67;;
20713;SDS011;10518;50.742;4.226;2023-04-25T01:59:38;9.23;;;1.50;;
20713;SDS011;10518;50.742;4.226;2023-04-25T02:02:05;4.40;;;1.27;;
20713;SDS011;10518;50.742;4.226;2023-04-25T02:04:31;5.73;;;1.70;;
20713;SDS011;10518;50.742;4.226;2023-04-25T02:06:57;2.80;;;1.90;;
20713;SDS011;10518;50.742;4.226;2023-04-25T02:09:23;4.23;;;1.73;;
20713;SDS011;10518;50.742;4.226;2023-04-25T02:11:49;4.00;;;1.40;;
20713;SDS011;10518;50.742;4.226;2023-04-25T02:14:14;5.37;;;1.67;;
20713;SDS011;10518;50.742;4.226;2023-04-25T02:16:40;1.13;;;1.03;;
20713;SDS011;10518;50.742;4.226;2023-04-25T02:19:06;5.40;;;1.53;;
20713;SDS011;10518;50.742;4.226;2023-04-25T02:21:32;21.00;;;1.67;;
20713;SDS011;10518;50.742;4.226;2023-04-25T02:24:00;4.13;;;1.87;;
20713;SDS011;10518;50.742;4.226;2023-04-25T02:26:26;3.07;;;1.57;;
20713;SDS011;10518;50.742;4.226;2023-04-25T02:28:51;6.47;;;1.97;;
20713;SDS011;10518;50.742;4.226;2023-04-25T02:31:17;6.43;;;1.80;;
20713;SDS011;10518;50.742;4.226;2023-04-25T02:33:43;4.80;;;1.43;;
20713;SDS011;10518;50.742;4.226;2023-04-25T02:36:08;6.57;;;1.87;;
20713;SDS011;10518;50.742;4.226;2023-04-25T02:38:34;2.77;;;1.53;;
20713;SDS011;10518;50.742;4.226;2023-04-25T02:41:00;3.43;;;1.53;;
20713;SDS011;10518;50.742;4.226;2023-04-25T02:43:26;10.10;;;1.50;;
20713;SDS011;10518;50.742;4.226;2023-04-25T02:45:51;3.23;;;1.53;;
20713;SDS011;10518;50.742;4.226;2023-04-25T02:48:17;7.90;;;1.83;;
20713;SDS011;10518;50.742;4.226;2023-04-25T02:50:43;4.40;;;2.13;;
20713;SDS011;10518;50.742;4.226;2023-04-25T02:53:08;7.23;;;2.20;;
20713;SDS011;10518;50.742;4.226;2023-04-25T02:55:34;1.70;;;1.10;;
20713;SDS011;10518;50.742;4.226;2023-04-25T02:58:00;3.87;;;1.70;;
20713;SDS011;10518;50.742;4.226;2023-04-25T03:00:26;3.80;;;1.77;;
20713;SDS011;10518;50.742;4.226;2023-04-25T03:02:51;4.07;;;1.97;;
20713;SDS011;10518;50.742;4.226;2023-04-25T03:05:17;5.10;;;2.70;;
20713;SDS011;10518;50.742;4.226;2023-04-25T03:07:43;3.67;;;2.33;;
20713;SDS011;10518;50.742;4.226;2023-04-25T03:10:09;4.30;;;1.93;;
20713;SDS011;10518;50.742;4.226;2023-04-25T03:12:35;8.27;;;1.90;;
20713;SDS011;10518;50.742;4.226;2023-04-25T03:15:01;4.90;;;1.63;;
20713;SDS011;10518;50.742;4.226;2023-04-25T03:17:28;5.10;;;1.97;;
20713;SDS011;10518;50.742;4.226;2023-04-25T03:19:53;8.83;;;1.87;;
20713;SDS011;10518;50.742;4.226;2023-04-25T03:22:19;3.60;;;2.10;;
20713;SDS011;10518;50.742;4.226;2023-04-25T03:24:45;6.73;;;1.90;;
20713;SDS011;10518;50.742;4.226;2023-04-25T03:27:10;2.80;;;1.90;;
20713;SDS011;10518;50.742;4.226;2023-04-25T03:29:36;3.07;;;1.77;;
20713;SDS011;10518;50.742;4.226;2023-04-25T03:32:01;7.37;;;2.40;;
20713;SDS011;10518;50.742;4.226;2023-04-25T03:34:27;6.50;;;1.77;;
20713;SDS011;10518;50.742;4.226;2023-04-25T03:36:53;2.53;;;2.10;;
20713;SDS011;10518;50.742;4.226;2023-04-25T03:39:18;6.40;;;1.67;;
20713;SDS011;10518;50.742;4.226;2023-04-25T03:41:44;9.17;;;2.27;;
20713;SDS011;10518;50.742;4.226;2023-04-25T03:44:10;8.07;;;1.93;;
20713;SDS011;10518;50.742;4.226;2023-04-25T03:46:35;3.50;;;1.70;;
20713;SDS011;10518;50.742;4.226;2023-04-25T03:49:01;1.83;;;1.10;;
20713;SDS011;10518;50.742;4.226;2023-04-25T03:51:26;5.10;;;2.00;;
20713;SDS011;10518;50.742;4.226;2023-04-25T03:53:52;6.47;;;2.40;;
20713;SDS011;10518;50.742;4.226;2023-04-25T03:56:18;4.90;;;1.60;;
20713;SDS011;10518;50.742;4.226;2023-04-25T03:58:44;8.23;;;2.50;;
20713;SDS011;10518;50.742;4.226;2023-04-25T04:01:09;6.23;;;1.57;;
20713;SDS011;10518;50.742;4.226;2023-04-25T04:03:35;6.20;;;1.67;;
20713;SDS011;10518;50.742;4.226;2023-04-25T04:06:02;5.37;;;1.60;;
20713;SDS011;10518;50.742;4.226;2023-04-25T04:08:29;2.13;;;1.60;;
20713;SDS011;10518;50.742;4.226;2023-04-25T04:10:57;2.13;;;1.53;;
20713;SDS011;10518;50.742;4.226;2023-04-25T04:13:23;6.73;;;2.67;;
20713;SDS011;10518;50.742;4.226;2023-04-25T04:15:50;8.03;;;1.37;;
20713;SDS011;10518;50.742;4.226;2023-04-25T04:18:15;7.27;;;1.53;;
20713;SDS011;10518;50.742;4.226;2023-04-25T04:20:41;1.90;;;1.07;;
20713;SDS011;10518;50.742;4.226;2023-04-25T04:23:07;3.87;;;1.70;;
20713;SDS011;10518;50.742;4.226;2023-04-25T04:25:32;2.80;;;1.87;;
20713;SDS011;10518;50.742;4.226;2023-04-25T04:27:59;5.63;;;2.00;;
20713;SDS011;10518;50.742;4.226;2023-04-25T04:30:26;7.40;;;1.97;;
20713;SDS011;10518;50.742;4.226;2023-04-25T04:32:54;3.20;;;2.20;;
20713;SDS011;10518;50.742;4.226;2023-04-25T04:35:20;3.40;;;2.07;;
20713;SDS011;10518;50.742;4.226;2023-04-25T04:37:47;2.73;;;1.13;;
20713;SDS011;10518;50.742;4.226;2023-04-25T04:40:12;6.30;;;1.67;;
20713;SDS011;10518;50.742;4.226;2023-04-25T04:42:40;3.23;;;1.50;;
20713;SDS011;10518;50.742;4.226;2023-04-25T04:45:07;7.40;;;2.23;;
20713;SDS011;10518;50.742;4.226;2023-04-25T04:47:33;5.60;;;1.43;;
20713;SDS011;10518;50.742;4.226;2023-04-25T04:50:01;5.73;;;2.90;;
20713;SDS011;10518;50.742;4.226;2023-04-25T04:52:27;2.33;;;1.20;;
20713;SDS011;10518;50.742;4.226;2023-04-25T04:54:53;12.43;;;1.40;;
20713;SDS011;10518;50.742;4.226;2023-04-25T04:57:19;5.60;;;1.70;;
20713;SDS011;10518;50.742;4.226;2023-04-25T04:59:45;2.53;;;1.37;;
20713;SDS011;10518;50.742;4.226;2023-04-25T05:02:10;2.93;;;1.80;;
20713;SDS011;10518;50.742;4.226;2023-04-25T05:04:36;3.87;;;1.63;;
20713;SDS011;10518;50.742;4.226;2023-04-25T05:07:01;7.43;;;1.97;;
20713;SDS011;10518;50.742;4.226;2023-04-25T05:09:27;6.73;;;1.83;;
20713;SDS011;10518;50.742;4.226;2023-04-25T05:11:53;1.73;;;1.50;;
20713;SDS011;10518;50.742;4.226;2023-04-25T05:14:18;3.87;;;1.80;;
20713;SDS011;10518;50.742;4.226;2023-04-25T05:16:44;8.10;;;2.30;;
20713;SDS011;10518;50.742;4.226;2023-04-25T05:19:10;2.43;;;1.30;;
20713;SDS011;10518;50.742;4.226;2023-04-25T05:21:35;6.17;;;2.20;;
20713;SDS011;10518;50.742;4.226;2023-04-25T05:24:01;5.83;;;2.00;;
20713;SDS011;10518;50.742;4.226;2023-04-25T05:26:27;9.23;;;1.50;;
20713;SDS011;10518;50.742;4.226;2023-04-25T05:28:56;6.03;;;2.00;;
20713;SDS011;10518;50.742;4.226;2023-04-25T05:31:22;3.23;;;1.93;;
20713;SDS011;10518;50.742;4.226;2023-04-25T05:33:48;8.03;;;2.13;;
20713;SDS011;10518;50.742;4.226;2023-04-25T05:36:13;7.87;;;2.60;;
20713;SDS011;10518;50.742;4.226;2023-04-25T05:38:39;2.67;;;1.23;;
20713;SDS011;10518;50.742;4.226;2023-04-25T05:41:04;2.27;;;1.67;;
20713;SDS011;10518;50.742;4.226;2023-04-25T05:43:30;5.83;;;1.93;;
20713;SDS011;10518;50.742;4.226;2023-04-25T05:45:56;7.83;;;1.60;;
20713;SDS011;10518;50.742;4.226;2023-04-25T05:48:21;1.80;;;1.33;;
20713;SDS011;10518;50.742;4.226;2023-04-25T05:50:47;3.13;;;1.50;;
20713;SDS011;10518;50.742;4.226;2023-04-25T05:53:13;2.13;;;1.57;;
20713;SDS011;10518;50.742;4.226;2023-04-25T05:55:38;4.33;;;1.50;;
20713;SDS011;10518;50.742;4.226;2023-04-25T05:58:05;2.30;;;1.50;;
20713;SDS011;10518;50.742;4.226;2023-04-25T06:00:31;4.87;;;1.77;;
20713;SDS011;10518;50.742;4.226;2023-04-25T06:02:57;3.57;;;1.30;;
20713;SDS011;10518;50.742;4.226;2023-04-25T06:05:23;2.47;;;1.03;;
20713;SDS011;10518;50.742;4.226;2023-04-25T06:07:48;4.67;;;1.87;;
20713;SDS011;10518;50.742;4.226;2023-04-25T06:10:14;4.30;;;1.80;;
20713;SDS011;10518;50.742;4.226;2023-04-25T06:12:40;1.03;;;0.97;;
20713;SDS011;10518;50.742;4.226;2023-04-25T06:15:06;6.57;;;1.97;;
20713;SDS011;10518;50.742;4.226;2023-04-25T06:17:32;1.80;;;1.40;;
20713;SDS011;10518;50.742;4.226;2023-04-25T06:19:58;5.37;;;1.67;;
20713;SDS011;10518;50.742;4.226;2023-04-25T06:22:24;1.63;;;1.20;;
20713;SDS011;10518;50.742;4.226;2023-04-25T06:24:50;3.83;;;1.53;;
20713;SDS011;10518;50.742;4.226;2023-04-25T06:27:15;6.87;;;1.80;;
20713;SDS011;10518;50.742;4.226;2023-04-25T06:29:41;7.20;;;1.50;;
20713;SDS011;10518;50.742;4.226;2023-04-25T06:32:07;4.43;;;1.63;;
20713;SDS011;10518;50.742;4.226;2023-04-25T06:34:32;1.53;;;1.20;;
20713;SDS011;10518;50.742;4.226;2023-04-25T06:36:58;2.00;;;1.10;;
20713;SDS011;10518;50.742;4.226;2023-04-25T06:39:24;3.07;;;1.80;;
20713;SDS011;10518;50.742;4.226;2023-04-25T06:41:50;3.13;;;1.37;;
20713;SDS011;10518;50.742;4.226;2023-04-25T06:44:16;3.27;;;1.13;;
20713;SDS011;10518;50.742;4.226;2023-04-25T06:46:41;4.70;;;1.50;;
20713;SDS011;10518;50.742;4.226;2023-04-25T06:49:07;6.70;;;1.37;;
20713;SDS011;10518;50.742;4.226;2023-04-25T06:51:33;1.77;;;1.20;;
20713;SDS011;10518;50.742;4.226;2023-04-25T06:53:58;2.00;;;1.37;;
20713;SDS011;10518;50.742;4.226;2023-04-25T06:56:24;5.63;;;1.20;;
20713;SDS011;10518;50.742;4.226;2023-04-25T06:58:50;6.77;;;1.33;;
20713;SDS011;10518;50.742;4.226;2023-04-25T07:01:16;4.13;;;1.37;;
20713;SDS011;10518;50.742;4.226;2023-04-25T07:03:41;3.67;;;1.40;;
20713;SDS011;10518;50.742;4.226;2023-04-25T07:06:07;6.10;;;1.53;;
20713;SDS011;10518;50.742;4.226;2023-04-25T07:08:33;13.83;;;1.30;;
20713;SDS011;10518;50.742;4.226;2023-04-25T07:10:58;8.43;;;1.37;;
20713;SDS011;10518;50.742;4.226;2023-04-25T07:13:24;3.73;;;1.20;;
20713;SDS011;10518;50.742;4.226;2023-04-25T07:15:50;3.20;;;1.30;;
20713;SDS011;10518;50.742;4.226;2023-04-25T07:18:15;4.97;;;2.00;;
20713;SDS011;10518;50.742;4.226;2023-04-25T07:20:41;2.77;;;1.30;;
20713;SDS011;10518;50.742;4.226;2023-04-25T07:23:07;2.47;;;0.97;;
20713;SDS011;10518;50.742;4.226;2023-04-25T07:25:32;1.77;;;1.03;;
20713;SDS011;10518;50.742;4.226;2023-04-25T07:27:58;6.33;;;1.57;;
20713;SDS011;10518;50.742;4.226;2023-04-25T07:30:23;3.40;;;1.57;;
20713;SDS011;10518;50.742;4.226;2023-04-25T07:32:49;4.20;;;1.33;;
20713;SDS011;10518;50.742;4.226;2023-04-25T07:35:15;3.27;;;2.10;;
20713;SDS011;10518;50.742;4.226;2023-04-25T07:37:41;4.47;;;1.60;;
20713;SDS011;10518;50.742;4.226;2023-04-25T07:40:07;2.63;;;1.00;;
20713;SDS011;10518;50.742;4.226;2023-04-25T07:42:34;3.63;;;1.00;;
20713;SDS011;10518;50.742;4.226;2023-04-25T07:45:00;1.53;;;1.13;;
20713;SDS011;10518;50.742;4.226;2023-04-25T07:47:26;1.97;;;0.90;;
20713;SDS011;10518;50.742;4.226;2023-04-25T07:49:52;4.50;;;1.03;;
20713;SDS011;10518;50.742;4.226;2023-04-25T07:52:17;2.97;;;1.53;;
20713;SDS011;10518;50.742;4.226;2023-04-25T07:54:43;1.30;;;0.80;;
20713;SDS011;10518;50.742;4.226;2023-04-25T07:57:09;1.90;;;1.10;;
20713;SDS011;10518;50.742;4.226;2023-04-25T07:59:34;3.77;;;1.40;;
20713;SDS011;10518;50.742;4.226;2023-04-25T08:02:00;3.90;;;1.70;;
20713;SDS011;10518;50.742;4.226;2023-04-25T08:04:27;5.23;;;1.50;;
20713;SDS011;10518;50.742;4.226;2023-04-25T08:06:53;4.23;;;1.13;;
20713;SDS011;10518;50.742;4.226;2023-04-25T08:09:19;3.00;;;1.17;;
20713;SDS011;10518;50.742;4.226;2023-04-25T08:11:45;1.40;;;0.90;;
20713;SDS011;10518;50.742;4.226;2023-04-25T08:14:11;4.70;;;0.77;;
20713;SDS011;10518;50.742;4.226;2023-04-25T08:16:37;2.63;;;1.17;;
20713;SDS011;10518;50.742;4.226;2023-04-25T08:19:03;4.70;;;0.83;;
20713;SDS011;10518;50.742;4.226;2023-04-25T08:21:30;3.80;;;1.50;;
20713;SDS011;10518;50.742;4.226;2023-04-25T08:23:56;2.80;;;1.20;;
20713;SDS011;10518;50.742;4.226;2023-04-25T08:26:23;3.90;;;1.33;;
20713;SDS011;10518;50.742;4.226;2023-04-25T08:28:49;1.87;;;0.83;;
20713;SDS011;10518;50.742;4.226;2023-04-25T08:31:15;7.53;;;1.00;;
20713;SDS011;10518;50.742;4.226;2023-04-25T08:33:40;4.10;;;1.10;;
20713;SDS011;10518;50.742;4.226;2023-04-25T08:36:06;7.23;;;2.20;;
20713;SDS011;10518;50.742;4.226;2023-04-25T08:38:32;4.27;;;1.27;;
20713;SDS011;10518;50.742;4.226;2023-04-25T08:40:57;5.97;;;1.20;;
20713;SDS011;10518;50.742;4.226;2023-04-25T08:43:26;2.60;;;1.30;;
20713;SDS011;10518;50.742;4.226;2023-04-25T08:45:53;2.77;;;1.03;;
20713;SDS011;10518;50.742;4.226;2023-04-25T08:48:26;1.53;;;0.90;;
20713;SDS011;10518;50.742;4.226;2023-04-25T08:50:54;4.70;;;1.50;;
20713;SDS011;10518;50.742;4.226;2023-04-25T08:53:28;2.30;;;1.00;;
20713;SDS011;10518;50.742;4.226;2023-04-25T08:55:56;3.57;;;1.23;;
20713;SDS011;10518;50.742;4.226;2023-04-25T08:58:23;2.90;;;1.13;;
20713;SDS011;10518;50.742;4.226;2023-04-25T09:00:49;4.47;;;1.17;;
20713;SDS011;10518;50.742;4.226;2023-04-25T09:03:19;8.33;;;1.00;;
20713;SDS011;10518;50.742;4.226;2023-04-25T09:05:44;1.23;;;0.90;;
20713;SDS011;10518;50.742;4.226;2023-04-25T09:08:10;3.10;;;1.73;;
20713;SDS011;10518;50.742;4.226;2023-04-25T09:10:36;4.23;;;1.27;;
20713;SDS011;10518;50.742;4.226;2023-04-25T09:13:06;2.50;;;0.80;;
20713;SDS011;10518;50.742;4.226;2023-04-25T09:15:49;4.47;;;1.00;;
20713;SDS011;10518;50.742;4.226;2023-04-25T09:18:30;2.53;;;1.03;;
20713;SDS011;10518;50.742;4.226;2023-04-25T09:20:58;5.83;;;1.30;;
20713;SDS011;10518;50.742;4.226;2023-04-25T09:23:30;0.80;;;0.70;;
20713;SDS011;10518;50.742;4.226;2023-04-25T09:25:55;1.43;;;0.80;;
20713;SDS011;10518;50.742;4.226;2023-04-25T09:28:25;1.57;;;0.90;;
20713;SDS011;10518;50.742;4.226;2023-04-25T09:30:55;3.07;;;1.00;;
20713;SDS011;10518;50.742;4.226;2023-04-25T09:33:26;2.70;;;1.43;;
20713;SDS011;10518;50.742;4.226;2023-04-25T09:36:04;2.60;;;1.20;;
20713;SDS011;10518;50.742;4.226;2023-04-25T09:38:32;0.80;;;0.80;;
20713;SDS011;10518;50.742;4.226;2023-04-25T09:41:09;3.27;;;1.30;;
20713;SDS011;10518;50.742;4.226;2023-04-25T09:43:36;1.63;;;1.10;;
20713;SDS011;10518;50.742;4.226;2023-04-25T09:46:02;2.47;;;1.00;;
20713;SDS011;10518;50.742;4.226;2023-04-25T09:48:32;2.30;;;1.00;;
20713;SDS011;10518;50.742;4.226;2023-04-25T09:51:07;8.43;;;1.60;;
20713;SDS011;10518;50.742;4.226;2023-04-25T09:53:35;4.90;;;1.03;;
20713;SDS011;10518;50.742;4.226;2023-04-25T09:56:03;3.07;;;1.40;;
20713;SDS011;10518;50.742;4.226;2023-04-25T09:58:30;3.20;;;1.07;;
20713;SDS011;10518;50.742;4.226;2023-04-25T10:01:01;2.13;;;1.27;;
20713;SDS011;10518;50.742;4.226;2023-04-25T10:03:35;2.27;;;1.17;;
20713;SDS011;10518;50.742;4.226;2023-04-25T10:06:07;0.87;;;0.70;;
20713;SDS011;10518;50.742;4.226;2023-04-25T10:08:36;5.13;;;1.13;;
20713;SDS011;10518;50.742;4.226;2023-04-25T10:11:03;5.20;;;0.80;;
20713;SDS011;10518;50.742;4.226;2023-04-25T10:13:30;2.70;;;0.93;;
20713;SDS011;10518;50.742;4.226;2023-04-25T10:16:00;1.90;;;0.90;;
20713;SDS011;10518;50.742;4.226;2023-04-25T10:18:28;5.03;;;1.73;;
20713;SDS011;10518;50.742;4.226;2023-04-25T10:20:55;2.70;;;0.93;;
20713;SDS011;10518;50.742;4.226;2023-04-25T10:23:22;1.20;;;1.10;;
20713;SDS011;10518;50.742;4.226;2023-04-25T10:25:49;3.03;;;0.80;;
20713;SDS011;10518;50.742;4.226;2023-04-25T10:28:16;3.33;;;0.70;;
20713;SDS011;10518;50.742;4.226;2023-04-25T10:31:01;1.17;;;0.60;;
20713;SDS011;10518;50.742;4.226;2023-04-25T10:36:09;2.03;;;0.73;;
20713;SDS011;10518;50.742;4.226;2023-04-25T10:38:46;2.00;;;0.77;;
20713;SDS011;10518;50.742;4.226;2023-04-25T10:41:13;2.97;;;1.00;;
20713;SDS011;10518;50.742;4.226;2023-04-25T10:43:45;3.13;;;0.90;;
20713;SDS011;10518;50.742;4.226;2023-04-25T10:46:16;2.27;;;0.60;;
20713;SDS011;10518;50.742;4.226;2023-04-25T10:48:46;2.43;;;0.70;;
20713;SDS011;10518;50.742;4.226;2023-04-25T10:51:16;7.00;;;1.00;;
20713;SDS011;10518;50.742;4.226;2023-04-25T10:53:46;1.20;;;0.90;;
20713;SDS011;10518;50.742;4.226;2023-04-25T10:58:48;1.03;;;0.60;;
20713;SDS011;10518;50.742;4.226;2023-04-25T11:01:14;1.67;;;0.80;;
20713;SDS011;10518;50.742;4.226;2023-04-25T11:03:44;1.70;;;0.73;;
20713;SDS011;10518;50.742;4.226;2023-04-25T11:08:48;2.10;;;0.70;;
20713;SDS011;10518;50.742;4.226;2023-04-25T11:11:16;1.70;;;0.73;;
20713;SDS011;10518;50.742;4.226;2023-04-25T11:13:42;1.37;;;0.60;;
20713;SDS011;10518;50.742;4.226;2023-04-25T11:16:08;2.40;;;0.97;;
20713;SDS011;10518;50.742;4.226;2023-04-25T11:18:34;3.13;;;0.80;;
20713;SDS011;10518;50.742;4.226;2023-04-25T11:21:00;1.13;;;0.73;;
20713;SDS011;10518;50.742;4.226;2023-04-25T11:23:26;1.00;;;0.60;;
20713;SDS011;10518;50.742;4.226;2023-04-25T11:25:52;3.90;;;0.83;;
20713;SDS011;10518;50.742;4.226;2023-04-25T11:28:20;0.60;;;0.60;;
20713;SDS011;10518;50.742;4.226;2023-04-25T11:30:48;2.83;;;0.93;;
20713;SDS011;10518;50.742;4.226;2023-04-25T11:33:15;6.47;;;1.23;;
20713;SDS011;10518;50.742;4.226;2023-04-25T11:35:41;2.20;;;1.00;;
20713;SDS011;10518;50.742;4.226;2023-04-25T11:38:07;1.17;;;0.70;;
20713;SDS011;10518;50.742;4.226;2023-04-25T11:40:33;1.10;;;0.60;;
20713;SDS011;10518;50.742;4.226;2023-04-25T11:43:00;2.13;;;0.97;;
20713;SDS011;10518;50.742;4.226;2023-04-25T11:45:26;0.90;;;0.70;;
20713;SDS011;10518;50.742;4.226;2023-04-25T11:47:52;0.70;;;0.70;;
20713;SDS011;10518;50.742;4.226;2023-04-25T11:50:18;9.13;;;1.10;;
20713;SDS011;10518;50.742;4.226;2023-04-25T11:52:46;1.20;;;0.90;;
20713;SDS011;10518;50.742;4.226;2023-04-25T11:55:13;3.73;;;1.03;;
20713;SDS011;10518;50.742;4.226;2023-04-25T11:57:40;3.23;;;1.60;;
20713;SDS011;10518;50.742;4.226;2023-04-25T12:00:20;5.77;;;0.80;;
20713;SDS011;10518;50.742;4.226;2023-04-25T12:02:51;0.50;;;0.50;;
20713;SDS011;10518;50.742;4.226;2023-04-25T12:05:18;0.40;;;0.40;;
20713;SDS011;10518;50.742;4.226;2023-04-25T12:07:45;1.13;;;1.03;;
20713;SDS011;10518;50.742;4.226;2023-04-25T12:10:12;2.30;;;0.70;;
20713;SDS011;10518;50.742;4.226;2023-04-25T12:12:42;1.30;;;0.70;;
20713;SDS011;10518;50.742;4.226;2023-04-25T12:17:41;1.20;;;0.63;;
20713;SDS011;10518;50.742;4.226;2023-04-25T12:20:10;0.83;;;0.83;;
20713;SDS011;10518;50.742;4.226;2023-04-25T12:22:40;0.73;;;0.73;;
20713;SDS011;10518;50.742;4.226;2023-04-25T12:25:09;2.90;;;0.90;;
20713;SDS011;10518;50.742;4.226;2023-04-25T12:27:35;0.97;;;0.70;;
20713;SDS011;10518;50.742;4.226;2023-04-25T12:30:02;1.13;;;0.83;;
20713;SDS011;10518;50.742;4.226;2023-04-25T12:32:28;1.40;;;0.73;;
20713;SDS011;10518;50.742;4.226;2023-04-25T12:34:54;2.30;;;0.70;;
20713;SDS011;10518;50.742;4.226;2023-04-25T12:37:20;2.70;;;0.70;;
20713;SDS011;10518;50.742;4.226;2023-04-25T12:39:45;1.27;;;0.80;;
20713;SDS011;10518;50.742;4.226;2023-04-25T12:42:11;0.43;;;0.40;;
20713;SDS011;10518;50.742;4.226;2023-04-25T12:44:37;1.50;;;0.67;;
20713;SDS011;10518;50.742;4.226;2023-04-25T12:47:03;5.03;;;0.67;;
20713;SDS011;10518;50.742;4.226;2023-04-25T12:49:29;0.60;;;0.60;;
20713;SDS011;10518;50.742;4.226;2023-04-25T12:51:54;1.80;;;0.60;;
20713;SDS011;10518;50.742;4.226;2023-04-25T12:54:20;0.63;;;0.50;;
20713;SDS011;10518;50.742;4.226;2023-04-25T12:56:46;0.60;;;0.60;;
20713;SDS011;10518;50.742;4.226;2023-04-25T12:59:12;1.97;;;0.63;;
20713;SDS011;10518;50.742;4.226;2023-04-25T13:01:37;0.80;;;0.80;;
20713;SDS011;10518;50.742;4.226;2023-04-25T13:04:03;4.43;;;0.70;;
20713;SDS011;10518;50.742;4.226;2023-04-25T13:06:29;1.23;;;0.53;;
20713;SDS011;10518;50.742;4.226;2023-04-25T13:08:55;1.10;;;0.70;;
20713;SDS011;10518;50.742;4.226;2023-04-25T13:11:21;2.03;;;1.20;;
20713;SDS011;10518;50.742;4.226;2023-04-25T13:13:47;3.77;;;0.83;;
20713;SDS011;10518;50.742;4.226;2023-04-25T13:16:12;2.33;;;0.83;;
20713;SDS011;10518;50.742;4.226;2023-04-25T13:18:39;2.83;;;0.80;;
20713;SDS011;10518;50.742;4.226;2023-04-25T13:21:05;2.20;;;0.70;;
20713;SDS011;10518;50.742;4.226;2023-04-25T13:23:31;0.50;;;0.50;;
20713;SDS011;10518;50.742;4.226;2023-04-25T13:25:56;2.60;;;1.53;;
20713;SDS011;10518;50.742;4.226;2023-04-25T13:28:23;2.80;;;1.03;;
20713;SDS011;10518;50.742;4.226;2023-04-25T13:30:49;1.97;;;0.70;;
20713;SDS011;10518;50.742;4.226;2023-04-25T13:33:15;3.30;;;0.70;;
20713;SDS011;10518;50.742;4.226;2023-04-25T13:35:41;2.73;;;0.60;;
20713;SDS011;10518;50.742;4.226;2023-04-25T13:38:07;1.08;;;0.60;;
20713;SDS011;10518;50.742;4.226;2023-04-25T13:40:33;4.17;;;0.87;;
20713;SDS011;10518;50.742;4.226;2023-04-25T13:42:59;4.88;;;1.17;;
20713;SDS011;10518;50.742;4.226;2023-04-25T13:45:26;1.52;;;1.35;;
20713;SDS011;10518;50.742;4.226;2023-04-25T13:47:51;4.63;;;0.90;;
20713;SDS011;10518;50.742;4.226;2023-04-25T13:50:17;1.40;;;0.70;;
20713;SDS011;10518;50.742;4.226;2023-04-25T13:52:43;2.60;;;0.93;;
20713;SDS011;10518;50.742;4.226;2023-04-25T13:55:08;1.10;;;0.90;;
20713;SDS011;10518;50.742;4.226;2023-04-25T13:57:35;3.00;;;1.03;;
20713;SDS011;10518;50.742;4.226;2023-04-25T14:00:02;1.27;;;0.80;;
20713;SDS011;10518;50.742;4.226;2023-04-25T14:02:33;1.10;;;0.97;;
20713;SDS011;10518;50.742;4.226;2023-04-25T14:05:02;1.13;;;0.80;;
20713;SDS011;10518;50.742;4.226;2023-04-25T14:07:28;4.80;;;1.07;;
20713;SDS011;10518;50.742;4.226;2023-04-25T14:09:55;2.37;;;0.90;;
20713;SDS011;10518;50.742;4.226;2023-04-25T14:12:22;2.53;;;0.90;;
20713;SDS011;10518;50.742;4.226;2023-04-25T14:14:48;4.77;;;1.13;;
20713;SDS011;10518;50.742;4.226;2023-04-25T14:17:13;3.20;;;0.80;;
20713;SDS011;10518;50.742;4.226;2023-04-25T14:19:39;0.67;;;0.43;;
20713;SDS011;10518;50.742;4.226;2023-04-25T14:22:08;3.33;;;1.00;;
20713;SDS011;10518;50.742;4.226;2023-04-25T14:24:34;0.93;;;0.50;;
20713;SDS011;10518;50.742;4.226;2023-04-25T14:27:00;1.27;;;0.73;;
20713;SDS011;10518;50.742;4.226;2023-04-25T14:29:26;0.60;;;0.60;;
20713;SDS011;10518;50.742;4.226;2023-04-25T14:31:51;4.77;;;0.80;;
20713;SDS011;10518;50.742;4.226;2023-04-25T14:34:18;1.23;;;0.77;;
20713;SDS011;10518;50.742;4.226;2023-04-25T14:36:44;5.47;;;1.63;;
20713;SDS011;10518;50.742;4.226;2023-04-25T14:39:09;3.57;;;0.87;;
20713;SDS011;10518;50.742;4.226;2023-04-25T14:41:35;2.20;;;0.70;;
20713;SDS011;10518;50.742;4.226;2023-04-25T14:44:00;1.50;;;0.80;;
20713;SDS011;10518;50.742;4.226;2023-04-25T14:46:26;1.27;;;0.67;;
20713;SDS011;10518;50.742;4.226;2023-04-25T14:48:52;1.47;;;0.80;;
20713;SDS011;10518;50.742;4.226;2023-04-25T14:51:18;3.17;;;0.90;;
20713;SDS011;10518;50.742;4.226;2023-04-25T14:53:43;0.83;;;0.67;;
20713;SDS011;10518;50.742;4.226;2023-04-25T14:56:09;5.53;;;1.40;;